EW5423 Weather Reports


Display with metric or nautical units.
time (UTC)temp
F
wind
direction
speed
MPH
gust
MPH
rain 1hr
in
rain 24hr
in
rain mn
in
humidity
%
barometer
mb
20210731175306 84 272 3.0 6.0 0.00 0.22 0.02 53 1017.3
20210731174805 84 237 2.0 5.0 0.00 0.22 0.02 54 1017.3
20210731174309 84 276 5.0 8.0 0.00 0.22 0.02 56 1017.3
20210731173806 84 248 2.0 3.0 0.00 0.22 0.02 56 1017.3
20210731173305 83 284 4.0 6.0 0.00 0.22 0.02 56 1017.4
20210731172808 83 267 3.0 7.0 0.00 0.22 0.02 57 1017.4
20210731172308 83 255 2.0 9.0 0.00 0.22 0.02 56 1017.5
20210731171805 83 262 4.0 9.0 0.00 0.22 0.02 58 1017.5
20210731171308 82 257 2.0 3.0 0.00 0.22 0.02 59 1017.6
20210731170805 82 271 3.0 7.0 0.00 0.22 0.02 60 1017.5
20210731170308 82 228 3.0 8.0 0.00 0.22 0.02 62 1017.5
20210731165805 82 296 2.0 5.0 0.00 0.22 0.02 60 1017.4
20210731165306 82 271 2.0 5.0 0.00 0.22 0.02 58 1017.4
20210731164807 82 249 3.0 5.0 0.00 0.22 0.02 61 1017.3
20210731164308 82 228 0.0 5.0 0.00 0.22 0.02 62 1017.3
20210731163806 81 234 2.0 3.0 0.00 0.22 0.02 65 1017.3
20210731163307 81 262 2.0 5.0 0.00 0.22 0.02 62 1017.3
20210731162807 80 216 2.0 5.0 0.00 0.22 0.02 65 1017.3
20210731162306 80 278 1.0 6.0 0.00 0.22 0.02 65 1017.3
20210731161808 80 260 2.0 5.0 0.00 0.22 0.02 66 1017.3
20210731161305 80 220 0.0 3.0 0.00 0.22 0.02 69 1017.3
20210731160809 79 231 0.0 3.0 0.00 0.22 0.02 66 1017.3
20210731160308 79 235 2.0 5.0 0.00 0.22 0.02 69 1017.3
20210731155807 78 245 3.0 5.0 0.00 0.22 0.02 70 1017.3
20210731155307 78 301 2.0 5.0 0.00 0.22 0.02 68 1017.3
20210731154807 78 271 2.0 5.0 0.00 0.22 0.02 69 1017.3
20210731154307 78 296 2.0 3.0 0.00 0.22 0.02 69 1017.3
20210731153806 78 298 2.0 5.0 0.00 0.22 0.02 72 1017.2
20210731153305 77 293 1.0 3.0 0.00 0.22 0.02 69 1017.3
20210731152807 77 263 1.0 3.0 0.00 0.22 0.02 72 1017.2
20210731152306 77 259 3.0 5.0 0.00 0.22 0.02 73 1017.2
20210731151807 76 259 2.0 3.0 0.00 0.22 0.02 74 1017.2
20210731151308 76 227 3.0 3.0 0.00 0.22 0.02 75 1017.1
20210731150805 76 292 2.0 3.0 0.00 0.22 0.02 74 1017.1
20210731150308 75 292 1.0 3.0 0.00 0.22 0.02 74 1017.1
20210731145805 75 292 1.0 3.0 0.00 0.22 0.02 76 1017.1
20210731145305 75 286 1.0 3.0 0.00 0.22 0.02 76 1017.0
20210731144806 74 287 2.0 3.0 0.00 0.22 0.02 78 1017.0
20210731144306 74 288 3.0 3.0 0.00 0.22 0.02 78 1017.0
20210731143808 74 290 3.0 5.0 0.01 0.22 0.02 77 1016.9
20210731143305 73 273 3.0 5.0 0.01 0.22 0.02 80 1016.8
20210731142806 73 294 3.0 5.0 0.01 0.22 0.02 80 1016.8
20210731142306 73 283 2.0 3.0 0.01 0.22 0.02 82 1016.7
20210731141808 72 334 1.0 2.0 0.01 0.22 0.02 84 1016.7
20210731141308 72 334 2.0 3.0 0.01 0.22 0.02 83 1016.6
20210731140808 72 334 2.0 3.0 0.01 0.22 0.02 84 1016.6
20210731140305 71 295 2.0 3.0 0.01 0.22 0.02 85 1016.6
20210731135806 71 290 3.0 3.0 0.01 0.22 0.02 86 1016.6
20210731135308 70 290 3.0 5.0 0.01 0.22 0.02 89 1016.5
20210731134806 70 287 2.0 3.0 0.01 0.22 0.02 91 1016.3
20210731134306 70 290 2.0 3.0 0.01 0.22 0.02 91 1016.3
20210731133808 69 0 0.0 1.0 0.00 0.21 0.01 91 1016.2
20210731133305 69 12 0.0 3.0 0.00 0.21 0.01 91 1016.1
20210731132808 69 11 2.0 7.0 0.00 0.21 0.01 91 1016.1
20210731132306 69 343 2.0 3.0 0.00 0.21 0.01 91 1016.0
20210731131808 69 332 0.0 1.0 0.00 0.21 0.01 91 1016.0
20210731131305 69 332 2.0 3.0 0.00 0.21 0.01 91 1015.9
20210731130807 69 356 0.0 1.0 0.00 0.21 0.01 90 1015.8
20210731130308 69 356 0.0 2.0 0.00 0.21 0.01 90 1015.7
20210731125806 69 3 2.0 3.0 0.00 0.21 0.01 90 1015.5
20210731125307 69 3 1.0 2.0 0.00 0.21 0.01 89 1015.5
20210731124807 69 3 0.0 1.0 0.00 0.21 0.01 89 1015.4
20210731124305 69 3 1.0 3.0 0.00 0.21 0.01 88 1015.4
20210731123805 69 3 3.0 3.0 0.00 0.21 0.01 89 1015.4
20210731123305 69 350 3.0 3.0 0.00 0.21 0.01 90 1015.4
20210731122807 69 341 2.0 3.0 0.00 0.21 0.01 89 1015.4
20210731122307 69 314 0.0 1.0 0.00 0.21 0.01 89 1015.4
20210731121807 69 314 0.0 3.0 0.00 0.21 0.01 89 1015.3
20210731121307 69 314 2.0 3.0 0.00 0.21 0.01 89 1015.2
20210731120809 69 314 2.0 5.0 0.00 0.21 0.01 88 1015.1
20210731120306 69 338 3.0 6.0 0.00 0.21 0.01 89 1015.1
20210731115808 69 349 2.0 6.0 0.00 0.21 0.01 89 1015.1
20210731115306 69 346 3.0 6.0 0.00 0.21 0.01 90 1015.1
20210731114807 69 67 3.0 3.0 0.00 0.21 0.01 89 1015.1
20210731114306 69 67 0.0 3.0 0.00 0.21 0.01 88 1015.1
20210731113808 69 67 2.0 3.0 0.00 0.21 0.01 87 1015.1
20210731113305 69 66 2.0 3.0 0.00 0.21 0.01 87 1015.2
20210731112807 69 66 2.0 3.0 0.01 0.21 0.01 88 1015.3
20210731112306 69 68 0.0 1.0 0.01 0.21 0.01 89 1015.3
20210731111808 69 68 0.0 0.0 0.01 0.21 0.01 90 1015.4
20210731111308 69 68 0.0 0.0 0.01 0.21 0.01 89 1015.4
20210731110808 69 68 0.0 0.0 0.01 0.21 0.01 89 1015.4
20210731110306 69 68 0.0 2.0 0.01 0.21 0.01 88 1015.4
20210731105808 69 69 3.0 6.0 0.01 0.21 0.01 88 1015.4
20210731105306 69 66 3.0 6.0 0.01 0.21 0.01 89 1015.5
20210731104809 69 1 0.0 0.0 0.01 0.21 0.01 90 1015.7
20210731104305 69 0 0.0 0.0 0.01 0.21 0.01 90 1015.7
20210731103807 69 358 0.0 0.0 0.01 0.21 0.01 90 1015.7
20210731103305 69 358 0.0 0.0 0.01 0.21 0.01 91 1015.8
20210731102809 69 358 0.0 0.0 0.00 0.20 0.00 91 1015.7
20210731102306 69 358 0.0 0.0 0.00 0.20 0.00 91 1015.7
20210731101808 69 358 2.0 3.0 0.00 0.20 0.00 91 1015.8
20210731101307 70 119 0.0 0.0 0.00 0.20 0.00 91 1015.8
20210731100805 70 119 0.0 0.0 0.00 0.20 0.00 90 1015.8
20210731100307 69 119 0.0 0.0 0.00 0.20 0.00 89 1015.9
20210731095805 70 119 0.0 2.0 0.00 0.20 0.00 89 1015.8
20210731095307 70 119 2.0 3.0 0.00 0.20 0.00 89 1015.8
20210731094808 70 119 2.0 3.0 0.00 0.20 0.00 89 1015.9
20210731094307 70 120 2.0 3.0 0.00 0.20 0.00 89 1015.9
20210731093807 70 126 3.0 3.0 0.00 0.20 0.00 89 1016.0
20210731093308 70 167 2.0 3.0 0.00 0.20 0.00 90 1016.1
20210731092805 70 170 2.0 3.0 0.00 0.20 0.00 90 1016.2
20210731092308 70 172 2.0 3.0 0.00 0.20 0.00 91 1016.2
20210731091808 70 176 0.0 0.0 0.00 0.20 0.00 92 1016.2
20210731091308 70 176 0.0 0.0 0.00 0.20 0.00 92 1016.2
20210731090808 70 176 0.0 2.0 0.00 0.20 0.00 92 1016.2
20210731090305 71 176 1.0 2.0 0.00 0.20 0.00 92 1016.2
20210731085809 71 175 0.0 0.0 0.00 0.20 0.00 92 1016.1
20210731085307 71 175 0.0 0.0 0.00 0.20 0.00 92 1016.0
20210731084807 71 175 0.0 0.0 0.00 0.20 0.00 92 1016.0
20210731084305 70 175 0.0 0.0 0.00 0.20 0.00 92 1016.0
20210731083806 70 175 0.0 0.0 0.00 0.20 0.00 91 1016.1
20210731083307 70 175 0.0 1.0 0.00 0.20 0.00 92 1016.1
20210731082806 71 175 0.0 0.0 0.00 0.20 0.00 92 1016.2
20210731082305 71 175 0.0 0.0 0.00 0.20 0.00 93 1016.2
20210731081806 71 175 0.0 1.0 0.00 0.20 0.00 92 1016.0
20210731081306 71 175 1.0 1.0 0.00 0.20 0.00 92 1016.1
20210731080807 71 175 0.0 2.0 0.00 0.20 0.00 92 1016.0
20210731080305 71 175 1.0 3.0 0.00 0.20 0.00 92 1016.0
20210731075810 71 189 2.0 3.0 0.00 0.20 0.00 92 1016.0
20210731075307 71 302 0.0 0.0 0.00 0.20 0.00 92 1015.9
20210731074807 71 302 0.0 0.0 0.00 0.20 0.00 92 1016.1
20210731074307 71 302 0.0 0.0 0.00 0.20 0.00 92 1016.1
20210731073805 71 302 0.0 0.0 0.00 0.20 0.00 92 1016.1
20210731073306 71 302 0.0 0.0 0.00 0.20 0.00 91 1016.1
20210731072809 71 302 0.0 0.0 0.00 0.20 0.00 91 1016.2
20210731072306 71 302 0.0 0.0 0.00 0.20 0.00 91 1016.2
20210731071808 71 302 0.0 0.0 0.00 0.20 0.00 89 1016.2
20210731071305 71 302 0.0 0.0 0.00 0.20 0.00 89 1016.2
20210731070836 71 302 0.0 2.0 0.00 0.20 0.00 89 1016.1
20210731070309 71 302 0.0 0.0 0.00 0.20 0.00 88 1016.1
20210731065808 71 302 0.0 0.0 0.00 0.20 0.20 86 1016.0
20210731065306 71 302 1.0 2.0 0.00 0.20 0.20 86 1015.9
20210731064806 71 302 0.0 1.0 0.00 0.20 0.20 85 1015.9
20210731064309 71 302 1.0 2.0 0.00 0.20 0.20 84 1015.9
20210731063805 71 302 1.0 2.0 0.00 0.20 0.20 86 1015.9
20210731063306 71 302 2.0 5.0 0.00 0.20 0.20 85 1015.9
20210731062806 71 303 3.0 5.0 0.00 0.20 0.20 87 1016.0
20210731062308 71 29 2.0 3.0 0.00 0.20 0.20 87 1015.9
20210731061805 71 34 1.0 2.0 0.00 0.20 0.20 89 1015.8
20210731061306 71 34 0.0 0.0 0.00 0.20 0.20 88 1015.7
20210731060807 71 34 0.0 0.0 0.00 0.20 0.20 88 1015.7
20210731060308 71 34 0.0 0.0 0.00 0.20 0.20 89 1015.7
20210731055808 71 34 0.0 1.0 0.00 0.20 0.20 88 1015.6
20210731055306 71 34 2.0 3.0 0.00 0.20 0.20 86 1015.7
20210731054807 71 35 2.0 3.0 0.00 0.20 0.20 87 1015.8
20210731054306 71 35 2.0 3.0 0.00 0.20 0.20 86 1015.9
20210731053805 71 35 1.0 2.0 0.00 0.20 0.20 87 1016.0
20210731053306 71 35 1.0 2.0 0.00 0.20 0.20 89 1016.0
20210731052808 71 35 2.0 3.0 0.01 0.20 0.20 87 1015.9
20210731052307 71 35 3.0 3.0 0.01 0.20 0.20 87 1015.7
20210731051805 71 35 2.0 3.0 0.01 0.20 0.20 86 1015.7
20210731051305 71 35 2.0 3.0 0.01 0.20 0.20 86 1015.6
20210731050808 71 35 2.0 3.0 0.02 0.20 0.20 85 1015.5
20210731050304 71 35 2.0 3.0 0.02 0.20 0.20 86 1015.5
20210731045807 71 35 4.0 6.0 0.03 0.20 0.20 86 1015.7
20210731045306 70 51 4.0 6.0 0.03 0.20 0.20 87 1015.8
20210731044807 71 68 3.0 5.0 0.05 0.20 0.20 87 1015.8
20210731044305 71 150 3.0 6.0 0.08 0.21 0.20 89 1015.9
20210731043808 71 157 5.0 9.0 0.09 0.21 0.20 88 1015.9
20210731043306 71 151 5.0 9.0 0.09 0.21 0.20 87 1015.9
20210731042809 71 140 7.0 10.0 0.08 0.21 0.19 87 1015.8
20210731042307 71 62 3.0 6.0 0.08 0.25 0.19 83 1015.9
20210731041809 71 310 6.0 12.0 0.09 0.27 0.19 80 1016.0
20210731041307 72 254 2.0 3.0 0.11 0.27 0.19 82 1016.1
20210731040807 72 295 3.0 9.0 0.14 0.25 0.18 78 1016.3
20210731040306 72 318 7.0 14.0 0.18 0.25 0.18 76 1016.5
20210731035807 72 312 10.0 14.0 0.17 0.24 0.17 75 1016.7
20210731035306 73 20 6.0 12.0 0.17 0.24 0.17 76 1016.7
20210731034809 73 44 7.0 12.0 0.15 0.22 0.15 74 1016.5
20210731034306 74 77 6.0 10.0 0.12 0.19 0.12 73 1016.4
20210731033807 74 60 5.0 10.0 0.11 0.18 0.11 71 1016.2
20210731033309 74 83 7.0 12.0 0.11 0.18 0.11 66 1016.0
20210731032809 73 22 7.0 14.0 0.11 0.18 0.11 70 1015.7
20210731032307 72 26 10.0 16.0 0.11 0.18 0.11 71 1015.6
20210731031806 73 35 9.0 14.0 0.10 0.17 0.10 72 1015.7
20210731031309 76 82 7.0 12.0 0.08 0.15 0.08 66 1015.9
20210731025812 82 115 12.0 29.0 0.00 0.07 0.00 45 1015.7
20210731025309 83 132 21.0 35.0 0.00 0.07 0.00 44 1015.3
20210731024810 84 220 12.0 21.0 0.00 0.07 0.00 53 1014.7
20210731024308 84 188 6.0 9.0 0.00 0.07 0.00 55 1014.6
20210731023807 84 211 3.0 5.0 0.00 0.07 0.00 55 1014.1
20210731023306 85 239 3.0 5.0 0.00 0.07 0.00 54 1013.6
20210731022808 85 213 3.0 8.0 0.00 0.07 0.00 53 1013.5
20210731022310 85 153 3.0 9.0 0.00 0.07 0.00 54 1013.3
20210731021806 86 170 2.0 3.0 0.00 0.08 0.00 53 1013.2
20210731021309 86 170 2.0 6.0 0.00 0.08 0.00 53 1013.2
20210731020808 86 80 3.0 5.0 0.00 0.08 0.00 47 1013.1
20210731020309 86 39 3.0 6.0 0.00 0.08 0.00 49 1013.1
20210731015809 86 49 6.0 10.0 0.00 0.08 0.00 48 1013.0
20210731015307 86 47 4.0 8.0 0.00 0.08 0.00 46 1013.0
20210731014809 86 61 5.0 9.0 0.00 0.08 0.00 46 1013.0
20210731014308 86 52 6.0 10.0 0.00 0.08 0.00 45 1012.9
20210731013809 86 30 2.0 9.0 0.00 0.09 0.00 45 1012.9
20210731013309 86 60 5.0 9.0 0.00 0.09 0.00 45 1012.8
20210731012808 87 57 6.0 12.0 0.00 0.12 0.00 45 1012.7
20210731012309 87 137 1.0 3.0 0.00 0.16 0.00 49 1012.8
20210731011806 87 137 2.0 7.0 0.00 0.20 0.00 47 1012.7
20210731011309 87 52 3.0 9.0 0.00 0.27 0.00 41 1012.6
20210731010806 86 30 3.0 10.0 0.00 0.31 0.00 45 1012.4
20210731010307 86 43 7.0 13.0 0.00 0.35 0.00 47 1012.3
20210731005809 87 37 7.0 12.0 0.00 0.35 0.00 50 1012.3
20210731005309 88 58 7.0 17.0 0.00 0.35 0.00 50 1012.2
20210731004809 90 96 9.0 16.0 0.00 0.35 0.00 47 1012.3
20210731004306 91 181 5.0 9.0 0.00 0.35 0.00 42 1012.3
20210731003806 91 154 2.0 8.0 0.00 0.35 0.00 41 1012.1
20210731003309 91 233 5.0 15.0 0.00 0.35 0.00 39 1012.0
20210731002806 91 233 7.0 14.0 0.00 0.35 0.00 39 1011.8
20210731002308 91 240 7.0 13.0 0.00 0.35 0.00 38 1011.7
20210731001809 92 254 10.0 16.0 0.00 0.35 0.00 38 1011.5
20210731001309 93 227 7.0 16.0 0.00 0.35 0.00 36 1011.3
20210731000806 94 221 10.0 15.0 0.00 0.35 0.00 35 1011.4
20210731000306 95 207 6.0 13.0 0.00 0.35 0.00 34 1011.3
20210730235808 95 115 4.0 7.0 0.00 0.35 0.00 32 1011.2
20210730235308 94 133 6.0 7.0 0.00 0.35 0.00 33 1011.4
20210730234807 94 151 3.0 6.0 0.00 0.35 0.00 35 1011.4
20210730234310 94 53 2.0 5.0 0.00 0.35 0.00 33 1011.5
20210730233806 94 39 3.0 10.0 0.00 0.35 0.00 33 1011.4
20210730233307 95 24 7.0 9.0 0.00 0.35 0.00 31 1011.4
20210730232809 95 18 3.0 8.0 0.00 0.35 0.00 33 1011.5
20210730232309 97 48 5.0 8.0 0.00 0.35 0.00 30 1011.4
20210730231806 97 124 4.0 7.0 0.00 0.35 0.00 31 1011.4
20210730231308 97 130 5.0 12.0 0.00 0.35 0.00 32 1011.5
20210730230806 96 134 2.0 10.0 0.00 0.35 0.00 33 1011.5
20210730230309 96 85 3.0 7.0 0.00 0.35 0.00 32 1011.6
20210730225806 97 90 3.0 12.0 0.00 0.35 0.00 30 1011.7
20210730225307 96 74 2.0 6.0 0.00 0.35 0.00 32 1011.7
20210730224808 96 95 2.0 5.0 0.00 0.35 0.00 31 1011.7
20210730224310 96 114 6.0 12.0 0.00 0.35 0.00 31 1011.8
20210730223806 96 10 4.0 10.0 0.00 0.35 0.00 31 1011.6
20210730223307 97 6 9.0 13.0 0.00 0.35 0.00 30 1011.7
20210730222808 97 99 3.0 7.0 0.00 0.35 0.00 32 1011.7
20210730222309 97 205 3.0 6.0 0.00 0.35 0.00 33 1011.7
20210730221809 97 225 4.0 12.0 0.00 0.35 0.00 31 1011.6
20210730221306 96 208 5.0 13.0 0.00 0.35 0.00 32 1011.7
20210730220809 97 208 4.0 14.0 0.00 0.35 0.00 35 1011.8
20210730220306 97 223 7.0 12.0 0.00 0.35 0.00 31 1011.9
20210730215807 96 174 2.0 5.0 0.00 0.35 0.00 33 1011.9
20210730215306 96 237 3.0 10.0 0.00 0.35 0.00 31 1012.1
20210730214806 96 223 7.0 13.0 0.00 0.35 0.00 32 1012.0
20210730214305 95 242 9.0 13.0 0.00 0.35 0.00 32 1012.2
20210730213809 95 225 7.0 12.0 0.00 0.35 0.00 32 1012.2
20210730213306 96 312 5.0 9.0 0.00 0.35 0.00 31 1012.3
20210730212807 95 317 3.0 7.0 0.00 0.35 0.00 33 1012.4
20210730212309 96 256 3.0 7.0 0.00 0.35 0.00 32 1012.4
20210730211806 96 263 3.0 6.0 0.00 0.35 0.00 29 1012.5
20210730211308 97 158 2.0 8.0 0.00 0.35 0.00 31 1012.6
20210730210807 97 133 3.0 8.0 0.00 0.35 0.00 31 1012.8
20210730210308 96 161 4.0 8.0 0.00 0.35 0.00 33 1012.8
20210730205806 96 157 5.0 10.0 0.00 0.35 0.00 34 1012.8
20210730205305 96 168 2.0 3.0 0.00 0.35 0.00 31 1012.9
20210730204806 96 161 3.0 12.0 0.00 0.35 0.00 32 1013.0
20210730204305 96 187 6.0 10.0 0.00 0.35 0.00 32 1013.0
20210730203809 96 180 4.0 9.0 0.00 0.35 0.00 34 1013.1
20210730203310 96 180 6.0 10.0 0.00 0.35 0.00 33 1013.2
20210730202806 95 158 5.0 10.0 0.00 0.35 0.00 34 1013.3
20210730202307 95 161 6.0 12.0 0.00 0.35 0.00 34 1013.3
20210730201806 94 73 2.0 8.0 0.00 0.35 0.00 33 1013.4
20210730201306 94 162 2.0 10.0 0.00 0.35 0.00 34 1013.4
20210730200807 94 179 7.0 12.0 0.00 0.35 0.00 35 1013.4
20210730200306 94 335 3.0 5.0 0.00 0.35 0.00 33 1013.5
20210730195806 94 204 5.0 8.0 0.00 0.35 0.00 35 1013.6
20210730195308 93 165 2.0 7.0 0.00 0.35 0.00 34 1013.7
20210730194808 94 290 5.0 10.0 0.00 0.35 0.00 35 1013.8
20210730194307 93 261 5.0 9.0 0.00 0.35 0.00 35 1013.8
20210730193805 93 170 6.0 9.0 0.00 0.35 0.00 35 1013.8
20210730193305 93 235 5.0 9.0 0.00 0.35 0.00 36 1013.9
20210730192806 93 182 5.0 10.0 0.00 0.35 0.00 37 1014.0
20210730192309 92 160 7.0 10.0 0.00 0.35 0.00 37 1014.0
20210730191805 92 266 2.0 9.0 0.00 0.35 0.00 35 1014.0
20210730191309 91 278 5.0 9.0 0.00 0.35 0.00 37 1014.1
20210730190805 91 293 5.0 12.0 0.00 0.35 0.00 38 1014.1
20210730190309 91 255 5.0 10.0 0.00 0.35 0.00 37 1014.2
20210730185806 91 301 8.0 13.0 0.00 0.35 0.00 36 1014.3
20210730185308 91 265 5.0 8.0 0.00 0.35 0.00 38 1014.3
20210730184806 91 287 2.0 8.0 0.00 0.35 0.00 37 1014.3
20210730184307 91 258 5.0 9.0 0.00 0.35 0.00 38 1014.4
20210730183808 90 209 6.0 9.0 0.00 0.35 0.00 39 1014.4
20210730183306 90 280 2.0 7.0 0.00 0.35 0.00 38 1014.4
20210730182806 90 313 6.0 10.0 0.00 0.35 0.00 38 1014.4
20210730182307 91 290 5.0 8.0 0.00 0.35 0.00 38 1014.4
20210730181808 92 314 3.0 5.0 0.00 0.35 0.00 36 1014.6
20210730181306 92 190 2.0 8.0 0.00 0.35 0.00 37 1014.7
20210730180808 92 168 4.0 8.0 0.00 0.35 0.00 38 1014.7
20210730180306 92 144 2.0 9.0 0.00 0.35 0.00 38 1014.7
20210730175807 92 170 6.0 10.0 0.00 0.35 0.00 38 1014.7